Time;durP1;ratioP1;P1;durP2;ratioP2;P2;SDS_P1;SDS_P2;PMS_P1;PMS_P2;Temp;Humidity;BMP_temperature;BMP_pressure;BME280_temperature;BME280_humidity;BME280_pressure;Samples;Min_cycle;Max_cycle;Signal;HPM_P1;HPM_P2
2023/12/28 00:01:07;;;;;;;15.07;11.35;;;10.90;96.70;;;;;;4889670;29;20064;-69
2023/12/28 00:03:40;;;;;;;15.23;11.75;;;11.00;96.70;;;;;;4888547;29;20056;-69
2023/12/28 00:06:10;;;;;;;17.90;12.20;;;11.00;96.70;;;;;;4889098;29;20061;-69
2023/12/28 00:08:39;;;;;;;18.33;13.18;;;11.00;96.70;;;;;;4873677;29;20064;-69
2023/12/28 00:11:13;;;;;;;17.83;11.52;;;11.00;96.70;;;;;;4874033;29;20060;-69
2023/12/28 00:13:52;;;;;;;15.73;11.48;;;11.00;96.70;;;;;;4873621;29;20056;-69
2023/12/28 00:16:24;;;;;;;16.73;11.25;;;11.00;96.70;;;;;;4888915;29;20419;-69
2023/12/28 00:18:56;;;;;;;13.80;10.73;;;11.00;96.70;;;;;;4865342;29;20591;-69
2023/12/28 00:22:12;;;;;;;14.95;11.18;;;11.00;96.70;;;;;;4887799;29;20070;-69
2023/12/28 00:25:49;;;;;;;;;;;;;;;;;;;;;
2023/12/28 00:28:24;;;;;;;16.45;10.32;;;10.90;96.70;;;;;;4892963;29;20075;-69
2023/12/28 00:30:53;;;;;;;14.82;11.15;;;10.80;96.70;;;;;;4866023;29;20072;-69
2023/12/28 00:33:22;;;;;;;14.18;11.88;;;10.80;96.70;;;;;;4883585;29;20082;-68
2023/12/28 00:35:57;;;;;;;16.65;12.75;;;10.80;96.70;;;;;;4874884;29;20071;-68
2023/12/28 00:38:31;;;;;;;19.60;12.38;;;10.70;96.70;;;;;;4864498;29;20083;-69
2023/12/28 00:41:22;;;;;;;13.70;11.63;;;10.70;96.70;;;;;;4866981;29;20063;-69
2023/12/28 00:43:54;;;;;;;18.77;12.60;;;10.70;96.70;;;;;;4866991;29;20064;-69
2023/12/28 00:46:22;;;;;;;18.85;13.98;;;10.70;96.70;;;;;;4879483;29;20060;-68
2023/12/28 00:48:51;;;;;;;18.98;15.98;;;10.70;96.70;;;;;;4866772;29;20134;-68
2023/12/28 00:51:22;;;;;;;19.17;13.98;;;10.60;96.70;;;;;;4873292;29;20172;-68
2023/12/28 00:53:51;;;;;;;17.50;12.70;;;10.70;96.70;;;;;;4874993;29;20061;-68
2023/12/28 00:56:41;;;;;;;17.33;13.73;;;10.70;96.70;;;;;;4793134;29;20066;-69
2023/12/28 00:59:10;;;;;;;14.68;12.13;;;10.70;96.70;;;;;;4800283;29;20062;-70
2023/12/28 01:01:41;;;;;;;15.07;12.27;;;10.60;96.70;;;;;;4800690;29;20066;-69
2023/12/28 01:04:55;;;;;;;17.45;13.40;;;10.60;96.70;;;;;;4792109;29;20084;-69
2023/12/28 01:07:33;;;;;;;20.10;14.18;;;10.60;96.70;;;;;;4811460;29;20705;-69
2023/12/28 01:10:02;;;;;;;17.65;13.85;;;10.70;96.70;;;;;;4803995;29;20430;-68
2023/12/28 01:12:31;;;;;;;18.23;13.32;;;10.60;96.70;;;;;;4798259;29;20062;-69
2023/12/28 01:15:00;;;;;;;17.15;14.13;;;10.60;96.70;;;;;;4783099;29;20055;-69
2023/12/28 01:17:33;;;;;;;16.67;13.23;;;10.60;96.70;;;;;;4793695;29;20073;-69
2023/12/28 01:20:03;;;;;;;19.00;14.57;;;10.60;96.70;;;;;;4807674;29;20053;-68
2023/12/28 01:26:24;;;;;;;;;;;;;;;;;;;;;
2023/12/28 01:28:54;;;;;;;18.27;15.15;;;10.60;96.70;;;;;;4881949;29;20068;-69
2023/12/28 01:31:23;;;;;;;16.65;14.00;;;10.50;96.70;;;;;;4878567;29;20085;-69
2023/12/28 01:34:37;;;;;;;20.75;15.32;;;10.50;96.70;;;;;;4872048;29;20064;-68
2023/12/28 01:37:35;;;;;;;20.67;15.50;;;10.50;96.70;;;;;;4868516;29;20060;-68
2023/12/28 01:40:18;;;;;;;;;;;;;;;;;;;;;
2023/12/28 01:43:45;;;;;;;18.05;13.82;;;10.40;96.70;;;;;;4892962;29;20117;-68
2023/12/28 01:46:30;;;;;;;;;;;;;;;;;;;;;
2023/12/28 01:49:01;;;;;;;19.27;14.13;;;10.30;96.70;;;;;;4893525;29;20127;-69
2023/12/28 01:51:35;;;;;;;21.48;16.63;;;10.20;96.70;;;;;;4864512;29;20062;-68
2023/12/28 01:54:15;;;;;;;22.35;17.38;;;10.20;96.70;;;;;;4896923;29;20723;-68
2023/12/28 01:57:28;;;;;;;20.80;15.55;;;10.20;96.70;;;;;;4869461;29;20121;-68
2023/12/28 02:00:12;;;;;;;21.45;16.58;;;10.10;96.70;;;;;;4874515;29;20110;-68
2023/12/28 02:02:42;;;;;;;19.15;15.95;;;10.10;96.70;;;;;;4876831;29;20061;-69
2023/12/28 02:05:14;;;;;;;19.65;15.85;;;10.10;96.70;;;;;;4872955;29;20610;-68
2023/12/28 02:07:43;;;;;;;19.30;15.93;;;10.10;96.70;;;;;;4878496;29;20064;-68
2023/12/28 02:10:12;;;;;;;23.38;17.10;;;10.00;96.70;;;;;;4859093;29;20618;-67
2023/12/28 02:12:49;;;;;;;24.85;16.13;;;10.00;96.70;;;;;;4881036;29;20869;-68
2023/12/28 02:15:20;;;;;;;22.35;17.15;;;10.00;96.70;;;;;;4877172;29;20811;-68
2023/12/28 02:18:46;;;;;;;;;;;;;;;;;;;;;
2023/12/28 02:21:17;;;;;;;20.17;16.30;;;10.10;96.70;;;;;;4910250;29;20091;-68
2023/12/28 02:23:48;;;;;;;19.50;16.58;;;10.00;96.70;;;;;;4891821;29;20057;-68
2023/12/28 02:31:07;;;;;;;21.90;17.23;;;10.00;96.70;;;;;;4903012;29;20447;-68
2023/12/28 02:33:48;;;;;;;24.77;17.40;;;10.10;96.70;;;;;;4887924;29;20064;-68
2023/12/28 02:36:22;;;;;;;22.55;17.55;;;10.10;96.70;;;;;;4890070;29;20063;-68
2023/12/28 02:38:59;;;;;;;22.15;17.67;;;10.10;96.70;;;;;;4896606;29;20730;-68
2023/12/28 02:41:30;;;;;;;22.75;17.15;;;10.20;96.70;;;;;;4880246;29;20447;-69
2023/12/28 02:44:11;;;;;;;22.30;16.92;;;10.20;96.70;;;;;;4874384;29;20061;-68
2023/12/28 02:46:40;;;;;;;22.48;17.75;;;10.30;96.70;;;;;;4895805;29;20171;-69
2023/12/28 02:52:54;;;;;;;21.92;16.85;;;10.20;96.70;;;;;;4908356;29;20056;-69
2023/12/28 02:55:30;;;;;;;20.75;15.65;;;10.20;96.70;;;;;;4899421;29;20056;-69
2023/12/28 02:58:00;;;;;;;21.73;17.45;;;10.10;96.70;;;;;;4893330;29;20728;-69
2023/12/28 03:00:43;;;;;;;19.92;15.57;;;10.10;96.70;;;;;;4887389;29;20124;-68
2023/12/28 03:03:12;;;;;;;22.30;17.33;;;10.10;96.70;;;;;;4889267;29;20471;-69
2023/12/28 03:05:43;;;;;;;24.08;16.92;;;10.10;96.70;;;;;;4912037;29;20064;-68
2023/12/28 03:08:12;;;;;;;21.67;17.00;;;10.10;96.70;;;;;;4896217;29;20056;-68
2023/12/28 03:10:49;;;;;;;23.33;16.27;;;10.10;96.70;;;;;;4878535;29;20423;-68
2023/12/28 03:17:32;;;;;;;20.92;16.80;;;10.10;96.70;;;;;;4907963;29;20062;-68
2023/12/28 03:20:03;;;;;;;18.48;15.88;;;10.10;96.70;;;;;;4887103;29;20060;-68
2023/12/28 03:22:34;;;;;;;20.38;17.02;;;10.10;96.70;;;;;;4878899;29;20071;-68
2023/12/28 03:25:25;;;;;;;20.70;16.40;;;10.10;96.70;;;;;;4878073;29;20052;-68
2023/12/28 03:28:17;;;;;;;20.70;15.90;;;10.10;96.70;;;;;;4889202;29;20567;-68
2023/12/28 03:30:46;;;;;;;20.02;16.13;;;10.10;96.70;;;;;;4897764;29;20080;-68
2023/12/28 03:33:18;;;;;;;20.38;16.05;;;10.10;96.70;;;;;;4893170;29;20623;-68
2023/12/28 03:35:47;;;;;;;20.17;15.48;;;10.10;96.70;;;;;;4892686;29;20056;-69
2023/12/28 03:38:20;;;;;;;20.55;15.73;;;10.10;96.70;;;;;;4876656;29;20060;-68
2023/12/28 03:40:50;;;;;;;19.65;15.32;;;10.10;96.70;;;;;;4876975;29;20112;-68
2023/12/28 03:43:18;;;;;;;18.00;15.68;;;10.10;96.70;;;;;;4878258;29;20056;-68
2023/12/28 03:46:08;;;;;;;19.88;15.48;;;10.10;96.70;;;;;;4893264;29;20056;-68
2023/12/28 03:48:48;;;;;;;21.27;16.25;;;10.10;96.70;;;;;;4911249;29;20055;-68
2023/12/28 03:51:18;;;;;;;20.35;15.55;;;10.10;96.70;;;;;;4897329;29;20720;-68
2023/12/28 03:53:49;;;;;;;21.88;16.30;;;10.20;96.70;;;;;;4881942;29;20151;-68
2023/12/28 03:56:54;;;;;;;21.42;16.40;;;10.10;96.70;;;;;;4897430;29;20059;-69
2023/12/28 03:59:23;;;;;;;19.80;15.93;;;10.10;96.70;;;;;;4890778;29;20056;-68
2023/12/28 04:01:57;;;;;;;18.42;15.30;;;10.20;96.70;;;;;;4897048;29;20422;-68
2023/12/28 04:04:26;;;;;;;18.38;15.18;;;10.10;96.70;;;;;;4907651;29;20059;-68
2023/12/28 04:06:56;;;;;;;19.02;14.43;;;10.20;96.70;;;;;;4895727;29;20048;-69
2023/12/28 04:09:51;;;;;;;20.25;13.98;;;10.20;96.70;;;;;;4913447;29;20067;-68
2023/12/28 04:12:20;;;;;;;17.42;12.15;;;10.20;96.70;;;;;;4881814;29;20412;-69
2023/12/28 04:14:50;;;;;;;16.65;11.73;;;10.30;96.70;;;;;;4875613;29;20052;-68
2023/12/28 04:17:19;;;;;;;17.77;11.65;;;10.20;96.70;;;;;;4897033;29;20068;-68
2023/12/28 04:19:55;;;;;;;14.20;11.52;;;10.20;96.70;;;;;;4883683;29;20458;-69
2023/12/28 04:22:24;;;;;;;14.25;11.43;;;10.20;96.70;;;;;;4884665;29;20417;-68
2023/12/28 04:24:57;;;;;;;15.93;11.98;;;10.20;96.70;;;;;;4894507;29;20072;-68
2023/12/28 04:27:26;;;;;;;14.77;12.25;;;10.20;96.70;;;;;;4882592;29;20807;-68
2023/12/28 04:29:54;;;;;;;14.65;12.15;;;10.20;96.70;;;;;;4877345;29;20468;-69
2023/12/28 04:32:23;;;;;;;15.15;12.38;;;10.20;96.70;;;;;;4884957;29;20440;-68
2023/12/28 04:35:22;;;;;;;15.43;12.88;;;10.20;96.70;;;;;;4882521;29;20060;-68
2023/12/28 04:41:55;;;;;;;18.13;14.52;;;10.20;96.70;;;;;;4886471;29;20080;-68
2023/12/28 04:44:28;;;;;;;18.80;14.90;;;10.20;96.70;;;;;;4830343;29;20064;-68
2023/12/28 04:47:03;;;;;;;17.67;14.43;;;10.10;96.70;;;;;;4883602;29;20444;-69
2023/12/28 04:50:35;;;;;;;18.20;13.95;;;10.10;96.70;;;;;;4888505;29;20071;-68
2023/12/28 04:58:52;;;;;;;19.60;15.65;;;10.00;96.70;;;;;;4892031;29;20074;-69
2023/12/28 05:01:31;;;;;;;16.75;14.10;;;10.00;96.70;;;;;;4864171;29;20061;-68
2023/12/28 05:04:00;;;;;;;15.90;13.90;;;9.90;96.70;;;;;;4880200;29;20061;-68
2023/12/28 05:06:32;;;;;;;17.05;13.32;;;9.90;96.70;;;;;;4866845;29;20396;-69
2023/12/28 05:12:34;;;;;;;16.83;12.32;;;9.70;96.70;;;;;;4876003;29;20057;-69
2023/12/28 05:15:12;;;;;;;14.82;12.15;;;9.50;96.70;;;;;;4866005;29;20116;-68
2023/12/28 05:17:45;;;;;;;17.25;11.57;;;9.50;96.70;;;;;;4880791;29;20059;-68
2023/12/28 05:20:17;;;;;;;;;;;9.50;96.70;;;;;;4872511;29;20057;-68
2023/12/28 05:22:47;;;;;;;11.32;7.95;;;9.50;96.70;;;;;;4876747;29;20010;-68
2023/12/28 05:25:18;;;;;;;12.68;10.20;;;9.50;96.70;;;;;;4865787;29;20828;-68
2023/12/28 05:27:50;;;;;;;13.82;8.98;;;9.50;96.70;;;;;;4878997;29;20064;-69
2023/12/28 05:34:26;;;;;;;12.30;9.50;;;9.60;96.70;;;;;;4888877;29;20099;-69
2023/12/28 05:37:34;;;;;;;13.60;9.60;;;9.40;96.70;;;;;;4894697;29;20204;-68
2023/12/28 05:40:03;;;;;;;13.80;11.15;;;9.30;96.70;;;;;;4868647;29;20057;-68
2023/12/28 05:42:53;;;;;;;14.73;11.95;;;9.30;96.70;;;;;;4862037;29;20549;-68
2023/12/28 05:46:10;;;;;;;17.73;10.68;;;9.40;96.70;;;;;;4861659;29;20060;-69
2023/12/28 05:48:42;;;;;;;14.77;12.30;;;9.40;96.70;;;;;;4854227;29;20412;-69
2023/12/28 05:51:29;;;;;;;13.52;10.68;;;9.40;96.70;;;;;;4877348;29;20413;-68
2023/12/28 05:54:13;;;;;;;14.90;10.38;;;9.40;96.70;;;;;;4879661;29;20048;-69
2023/12/28 05:56:49;;;;;;;14.43;11.35;;;9.40;96.70;;;;;;4878161;29;20055;-68
2023/12/28 05:59:18;;;;;;;14.88;10.80;;;9.30;96.70;;;;;;4871817;29;20076;-68
2023/12/28 06:01:48;;;;;;;14.52;10.68;;;9.20;96.70;;;;;;4850609;29;20520;-68
2023/12/28 06:04:16;;;;;;;18.65;13.13;;;9.30;96.70;;;;;;4871245;29;20154;-68
2023/12/28 06:11:20;;;;;;;12.57;9.30;;;9.20;96.70;;;;;;4824822;29;20523;-68
2023/12/28 06:14:02;;;;;;;13.32;10.23;;;9.30;96.70;;;;;;4818589;29;20066;-68
2023/12/28 06:25:17;;;;;;;12.90;9.27;;;9.10;96.70;;;;;;4791651;29;20069;-69
2023/12/28 06:31:53;;;;;;;11.93;9.73;;;9.30;96.70;;;;;;4733170;30;20067;-68
2023/12/28 06:34:42;;;;;;;14.63;10.65;;;9.40;96.70;;;;;;4762603;29;20813;-68
2023/12/28 06:37:11;;;;;;;12.13;9.50;;;9.40;96.70;;;;;;4783387;29;20427;-68
2023/12/28 06:40:06;;;;;;;11.68;9.52;;;9.40;96.70;;;;;;4821929;29;20057;-68
2023/12/28 06:42:49;;;;;;;12.60;9.18;;;9.40;96.70;;;;;;4844076;29;20941;-68
2023/12/28 06:45:27;;;;;;;14.43;10.85;;;9.40;96.70;;;;;;4833756;29;20061;-68
2023/12/28 06:47:58;;;;;;;20.52;15.93;;;9.40;96.70;;;;;;4822447;29;20429;-68
2023/12/28 06:50:31;;;;;;;20.83;14.30;;;9.40;96.70;;;;;;4829069;29;20061;-69
2023/12/28 06:53:00;;;;;;;19.48;15.80;;;9.50;96.70;;;;;;4845222;29;20652;-68
2023/12/28 06:55:35;;;;;;;16.75;14.00;;;9.60;96.70;;;;;;4815736;29;20061;-68
2023/12/28 06:58:43;;;;;;;20.10;15.35;;;9.60;96.70;;;;;;4864583;29;20464;-68
2023/12/28 07:01:25;;;;;;;18.80;14.13;;;9.70;96.70;;;;;;4833782;29;20049;-69
2023/12/28 07:03:58;;;;;;;15.55;12.20;;;9.70;96.70;;;;;;4877195;29;20764;-69
2023/12/28 07:10:34;;;;;;;13.13;11.40;;;9.70;96.70;;;;;;4842073;29;20419;-69
2023/12/28 07:13:03;;;;;;;13.68;10.80;;;9.70;96.70;;;;;;4868261;29;20856;-69
2023/12/28 07:15:38;;;;;;;14.30;10.68;;;9.80;96.70;;;;;;4871797;29;20087;-69
2023/12/28 07:18:07;;;;;;;11.85;10.00;;;9.80;96.70;;;;;;4874554;29;20068;-68
2023/12/28 07:20:42;;;;;;;14.35;9.35;;;9.80;96.70;;;;;;4871485;29;20061;-68
2023/12/28 07:23:11;;;;;;;12.30;9.02;;;9.80;96.70;;;;;;4870943;29;20084;-68
2023/12/28 07:25:54;;;;;;;10.95;8.80;;;9.70;96.70;;;;;;4843762;29;20065;-68
2023/12/28 07:28:23;;;;;;;14.07;9.70;;;9.70;96.70;;;;;;4853199;29;20053;-68
2023/12/28 07:31:31;;;;;;;13.07;9.88;;;9.70;96.70;;;;;;4863648;29;20068;-68
2023/12/28 07:34:28;;;;;;;18.02;11.15;;;9.70;96.70;;;;;;4853994;29;20796;-68
2023/12/28 07:44:33;;;;;;;16.77;11.80;;;9.80;96.70;;;;;;4848752;29;20104;-68
2023/12/28 07:47:02;;;;;;;16.58;11.55;;;9.80;96.70;;;;;;4846990;29;20068;-68
2023/12/28 07:49:57;;;;;;;14.63;11.00;;;9.80;96.70;;;;;;4871462;29;20063;-68
2023/12/28 07:52:35;;;;;;;14.07;12.38;;;9.90;96.70;;;;;;4871818;29;20728;-69
2023/12/28 07:55:04;;;;;;;13.88;10.95;;;9.90;96.70;;;;;;4855510;29;20605;-69
2023/12/28 07:57:34;;;;;;;15.32;12.15;;;9.90;96.70;;;;;;4862075;29;20603;-69
2023/12/28 08:00:05;;;;;;;14.90;10.65;;;9.90;96.70;;;;;;4856064;29;20057;-69
2023/12/28 08:02:33;;;;;;;17.42;11.85;;;9.90;96.70;;;;;;4854139;29;20065;-69
2023/12/28 08:05:02;;;;;;;16.00;11.32;;;10.00;96.70;;;;;;4870273;29;20061;-69
2023/12/28 08:07:33;;;;;;;20.05;11.75;;;10.10;96.70;;;;;;4859236;29;20127;-69
2023/12/28 08:10:05;;;;;;;14.23;11.18;;;10.10;96.70;;;;;;4870460;29;20068;-69
2023/12/28 08:12:34;;;;;;;19.30;12.40;;;10.20;96.70;;;;;;4866706;29;20151;-68
2023/12/28 08:15:02;;;;;;;22.38;13.13;;;10.20;96.70;;;;;;4869035;29;20061;-69
2023/12/28 08:17:31;;;;;;;18.05;13.00;;;10.30;96.70;;;;;;4868413;29;20067;-68
2023/12/28 08:19:59;;;;;;;21.88;13.20;;;10.30;96.70;;;;;;4868516;29;20053;-69
2023/12/28 08:22:28;;;;;;;16.45;12.70;;;10.30;96.70;;;;;;4851687;29;20598;-69
2023/12/28 08:24:59;;;;;;;15.23;11.48;;;10.40;96.70;;;;;;4856547;29;20057;-69
2023/12/28 08:27:41;;;;;;;19.98;13.93;;;10.40;96.70;;;;;;4899391;29;20144;-70
2023/12/28 08:30:11;;;;;;;20.83;13.38;;;10.50;96.70;;;;;;4892588;29;20064;-69
2023/12/28 08:32:39;;;;;;;17.05;13.30;;;10.50;96.70;;;;;;4892844;29;20169;-70
2023/12/28 08:35:08;;;;;;;19.77;12.05;;;10.60;96.70;;;;;;4886057;29;20167;-70
2023/12/28 08:37:39;;;;;;;14.35;11.32;;;10.60;96.70;;;;;;4872713;29;20079;-70
2023/12/28 08:40:10;;;;;;;13.63;11.30;;;10.60;96.70;;;;;;4876940;29;20064;-70
2023/12/28 08:42:39;;;;;;;14.68;12.45;;;10.60;96.70;;;;;;4870653;29;20074;-69
2023/12/28 08:45:09;;;;;;;14.13;11.52;;;10.60;96.70;;;;;;4878469;29;20092;-70
2023/12/28 08:47:38;;;;;;;15.70;11.00;;;10.60;96.70;;;;;;4894663;29;20078;-70
2023/12/28 08:50:08;;;;;;;19.27;12.50;;;10.60;96.70;;;;;;4879854;29;20836;-70
2023/12/28 08:52:37;;;;;;;14.80;12.07;;;10.70;96.70;;;;;;4894164;29;20079;-70
2023/12/28 08:55:09;;;;;;;17.67;12.45;;;10.70;96.70;;;;;;4879447;29;21012;-70
2023/12/28 08:58:05;;;;;;;14.23;10.98;;;10.70;96.70;;;;;;4894158;29;20056;-70
2023/12/28 09:00:34;;;;;;;15.18;11.52;;;10.80;96.70;;;;;;4876564;29;20080;-71
2023/12/28 09:03:03;;;;;;;14.77;11.27;;;10.70;96.70;;;;;;4894331;29;20433;-70
2023/12/28 09:05:31;;;;;;;14.75;11.73;;;10.70;96.70;;;;;;4894578;29;20481;-69
2023/12/28 09:07:59;;;;;;;33.47;24.58;;;10.80;96.70;;;;;;4878744;29;20059;-69
2023/12/28 09:10:30;;;;;;;21.00;15.73;;;10.80;96.70;;;;;;4886038;29;20056;-69
2023/12/28 09:12:59;;;;;;;26.50;16.55;;;10.90;96.70;;;;;;4894811;29;20326;-69
2023/12/28 09:15:28;;;;;;;17.48;14.18;;;11.00;96.70;;;;;;4869547;29;20123;-70
2023/12/28 09:17:57;;;;;;;18.75;13.57;;;11.00;96.70;;;;;;4877823;29;20063;-70
2023/12/28 09:20:26;;;;;;;17.38;12.82;;;11.00;96.70;;;;;;4875043;29;20056;-70
2023/12/28 09:22:56;;;;;;;16.17;11.95;;;11.10;96.70;;;;;;4894413;29;20067;-69
2023/12/28 09:25:24;;;;;;;16.27;11.77;;;11.20;96.70;;;;;;4893800;29;20060;-70
2023/12/28 09:27:54;;;;;;;15.82;12.35;;;11.20;96.70;;;;;;4885435;29;20056;-69
2023/12/28 09:30:24;;;;;;;14.10;11.20;;;11.30;96.70;;;;;;4878433;29;20059;-70
2023/12/28 09:32:53;;;;;;;15.13;11.85;;;11.30;96.70;;;;;;4894670;29;20179;-69
2023/12/28 09:35:21;;;;;;;14.13;11.30;;;11.30;96.70;;;;;;4879051;29;20402;-69
2023/12/28 09:37:51;;;;;;;15.70;10.80;;;11.40;96.70;;;;;;4894537;29;20485;-69
2023/12/28 09:40:19;;;;;;;16.33;11.27;;;11.40;96.70;;;;;;4894285;29;20060;-69
2023/12/28 09:42:53;;;;;;;17.02;11.35;;;11.50;96.70;;;;;;4877441;29;20063;-70
2023/12/28 09:45:23;;;;;;;12.90;11.10;;;11.60;96.70;;;;;;4874120;29;20052;-69
2023/12/28 09:47:52;;;;;;;14.88;11.10;;;11.60;96.70;;;;;;4892591;29;20063;-69
2023/12/28 09:50:23;;;;;;;16.08;12.35;;;11.60;96.70;;;;;;4893032;29;20080;-69
2023/12/28 09:52:52;;;;;;;17.48;12.35;;;11.60;96.70;;;;;;4876550;29;20147;-69
2023/12/28 09:55:20;;;;;;;16.50;11.98;;;11.60;96.70;;;;;;4872427;29;20056;-70
2023/12/28 09:57:49;;;;;;;17.58;13.00;;;11.70;96.70;;;;;;4891383;29;20059;-70
2023/12/28 10:00:17;;;;;;;16.40;11.75;;;11.70;96.70;;;;;;4875782;29;20063;-70
2023/12/28 10:02:47;;;;;;;15.85;11.48;;;11.70;96.70;;;;;;4877981;29;20074;-70
2023/12/28 10:05:17;;;;;;;15.90;12.77;;;11.80;96.70;;;;;;4893252;29;20090;-70
2023/12/28 10:07:49;;;;;;;13.98;12.52;;;11.90;96.70;;;;;;4893745;29;20143;-70
2023/12/28 10:10:19;;;;;;;19.33;13.32;;;12.00;96.70;;;;;;4878745;29;20060;-70
2023/12/28 10:12:49;;;;;;;14.60;12.48;;;12.00;96.70;;;;;;4893474;29;20067;-69
2023/12/28 10:15:18;;;;;;;17.83;13.68;;;12.00;96.70;;;;;;4893285;29;20135;-69
2023/12/28 10:17:48;;;;;;;16.70;12.68;;;12.00;96.70;;;;;;4876325;29;20475;-70
2023/12/28 10:20:17;;;;;;;17.65;11.95;;;12.10;96.70;;;;;;4863860;29;20064;-70
2023/12/28 10:22:48;;;;;;;14.38;11.80;;;12.10;96.70;;;;;;4892747;29;20048;-70
2023/12/28 10:25:17;;;;;;;14.63;12.05;;;12.10;96.70;;;;;;4878159;29;20735;-70
2023/12/28 10:27:45;;;;;;;15.40;11.77;;;12.10;96.70;;;;;;4877853;29;20426;-69
2023/12/28 10:30:14;;;;;;;28.77;24.50;;;12.10;96.70;;;;;;4859116;29;20640;-69
2023/12/28 10:32:42;;;;;;;25.63;20.25;;;12.20;96.70;;;;;;4874491;29;20057;-69
2023/12/28 10:35:13;;;;;;;14.30;12.43;;;12.30;96.70;;;;;;4859414;29;20597;-69
2023/12/28 10:37:42;;;;;;;15.80;12.98;;;12.30;96.70;;;;;;4874767;29;20165;-69
2023/12/28 10:40:17;;;;;;;15.60;13.30;;;12.30;96.70;;;;;;4859828;29;20056;-69
2023/12/28 10:42:52;;;;;;;16.60;13.70;;;12.30;96.70;;;;;;4852078;29;20533;-69
2023/12/28 10:45:23;;;;;;;16.58;12.02;;;12.30;96.70;;;;;;4882772;29;20521;-67
2023/12/28 10:48:02;;;;;;;13.63;10.95;;;12.30;96.70;;;;;;4876170;29;20422;-67
2023/12/28 10:50:41;;;;;;;17.27;11.48;;;12.40;96.70;;;;;;4874926;29;20125;-69
2023/12/28 10:53:22;;;;;;;12.70;10.75;;;12.60;96.70;;;;;;4873858;29;20159;-70
2023/12/28 10:55:59;;;;;;;16.17;12.05;;;12.60;96.70;;;;;;4854829;29;20057;-69
2023/12/28 10:58:34;;;;;;;19.92;14.88;;;12.70;96.70;;;;;;4855156;29;20067;-69
2023/12/28 11:01:09;;;;;;;12.57;10.15;;;12.70;96.70;;;;;;4875877;29;20065;-69
2023/12/28 11:03:40;;;;;;;13.23;10.02;;;12.80;96.70;;;;;;4880978;29;20057;-68
2023/12/28 11:06:13;;;;;;;12.20;10.05;;;12.80;96.70;;;;;;4862344;29;20064;-68
2023/12/28 11:08:44;;;;;;;13.98;10.40;;;12.80;96.70;;;;;;4891130;29;20682;-68
2023/12/28 11:11:22;;;;;;;16.00;10.40;;;12.90;96.70;;;;;;4871369;29;20056;-68
2023/12/28 11:13:53;;;;;;;11.63;10.10;;;12.90;96.70;;;;;;4880726;29;20052;-68
2023/12/28 11:16:22;;;;;;;12.82;9.23;;;13.10;96.70;;;;;;4852935;29;20156;-68
2023/12/28 11:18:51;;;;;;;10.88;9.45;;;13.20;96.70;;;;;;4872480;29;20051;-69
2023/12/28 11:21:23;;;;;;;11.68;9.63;;;13.20;96.70;;;;;;4869418;29;20117;-68
2023/12/28 11:23:52;;;;;;;11.90;9.68;;;13.30;96.70;;;;;;4860911;29;20089;-68
2023/12/28 11:26:21;;;;;;;11.20;9.98;;;13.50;96.70;;;;;;4868155;29;20148;-68
2023/12/28 11:29:02;;;;;;;12.68;10.45;;;13.70;96.70;;;;;;5158077;23;20132;-66
2023/12/28 11:31:43;;;;;;;14.40;9.85;;;14.00;96.70;;;;;;4870653;29;20049;-67
2023/12/28 11:34:58;;;;;;;11.70;9.55;;;14.20;96.70;;;;;;4881661;29;20393;-68
2023/12/28 11:37:30;;;;;;;;;;;14.50;96.70;;;;;;4895534;29;20107;-68
2023/12/28 11:40:09;;;;;;;12.68;9.55;;;14.80;96.70;;;;;;4860519;29;20062;-68
2023/12/28 11:42:48;;;;;;;12.88;9.98;;;14.90;96.70;;;;;;4871022;29;20060;-68
2023/12/28 11:45:18;;;;;;;12.25;9.73;;;15.20;96.70;;;;;;4854290;29;20068;-69
2023/12/28 11:47:47;;;;;;;11.05;9.00;;;15.30;96.70;;;;;;4856075;29;20144;-69
2023/12/28 11:50:15;;;;;;;11.13;9.00;;;15.40;96.70;;;;;;4870349;29;20076;-68
2023/12/28 11:52:49;;;;;;;13.30;8.80;;;15.40;96.70;;;;;;4870274;29;20056;-67
2023/12/28 11:55:22;;;;;;;38.35;26.95;;;15.40;96.70;;;;;;4868284;29;20057;-68
2023/12/28 11:58:47;;;;;;;15.65;12.43;;;15.30;96.70;;;;;;4864206;29;20068;-67
2023/12/28 12:01:26;;;;;;;12.90;9.60;;;15.10;96.70;;;;;;4871475;29;20068;-67
2023/12/28 12:03:55;;;;;;;13.00;9.20;;;14.90;96.70;;;;;;4854619;29;20076;-67
2023/12/28 12:06:24;;;;;;;11.68;9.50;;;14.80;96.70;;;;;;4870180;29;20143;-68
2023/12/28 12:08:56;;;;;;;12.02;7.97;;;14.60;96.70;;;;;;4870653;29;20144;-68
2023/12/28 12:11:25;;;;;;;9.70;7.80;;;14.50;96.70;;;;;;4856138;29;20671;-68
2023/12/28 12:13:55;;;;;;;9.45;8.00;;;14.40;96.70;;;;;;4856805;29;20114;-67
2023/12/28 12:16:23;;;;;;;10.50;8.13;;;14.40;96.70;;;;;;4857163;29;20108;-67
2023/12/28 12:18:52;;;;;;;9.57;7.75;;;14.30;96.70;;;;;;4872340;29;20418;-67
2023/12/28 12:21:21;;;;;;;12.00;8.60;;;14.20;96.70;;;;;;4872644;29;20068;-67
2023/12/28 12:23:50;;;;;;;13.52;10.23;;;14.10;96.70;;;;;;4872424;29;20052;-67
2023/12/28 12:26:21;;;;;;;9.68;7.10;;;14.00;96.70;;;;;;4872340;29;20827;-67
2023/12/28 12:28:49;;;;;;;12.13;8.48;;;14.00;96.70;;;;;;4871828;29;20126;-67
2023/12/28 12:31:18;;;;;;;11.45;8.20;;;13.90;96.70;;;;;;4870958;29;20056;-67
2023/12/28 12:33:47;;;;;;;16.45;13.02;;;13.80;96.70;;;;;;4857784;29;20065;-68
2023/12/28 12:36:21;;;;;;;12.85;9.00;;;13.80;96.70;;;;;;4872607;29;20056;-67
2023/12/28 12:38:50;;;;;;;16.08;13.50;;;13.70;96.70;;;;;;4872315;29;20060;-66
2023/12/28 12:41:42;;;;;;;14.50;11.70;;;13.60;96.70;;;;;;4864565;29;20053;-67
2023/12/28 12:44:12;;;;;;;25.50;19.27;;;13.60;96.70;;;;;;4887928;29;20438;-67
2023/12/28 12:46:41;;;;;;;13.07;8.30;;;13.60;96.70;;;;;;4872666;29;20060;-67
2023/12/28 12:49:11;;;;;;;12.55;7.65;;;13.60;96.70;;;;;;4872821;29;20049;-67
2023/12/28 12:51:40;;;;;;;10.27;7.82;;;13.60;96.70;;;;;;4857148;29;20529;-67
2023/12/28 12:54:09;;;;;;;12.65;8.77;;;13.60;96.70;;;;;;4857257;29;20060;-67
2023/12/28 12:56:45;;;;;;;11.20;9.50;;;13.60;96.70;;;;;;4857185;29;20064;-67
2023/12/28 12:59:17;;;;;;;16.52;13.32;;;13.60;96.70;;;;;;4857810;29;20052;-67
2023/12/28 13:01:49;;;;;;;14.65;9.43;;;13.50;96.70;;;;;;4873121;29;20049;-67
2023/12/28 13:04:18;;;;;;;10.57;8.00;;;13.50;96.70;;;;;;4857252;29;20116;-67
2023/12/28 13:06:48;;;;;;;9.25;7.72;;;13.50;96.70;;;;;;4872628;29;20143;-68
2023/12/28 13:09:18;;;;;;;16.83;12.63;;;13.50;96.70;;;;;;4856750;29;20172;-67
2023/12/28 13:11:49;;;;;;;15.60;12.90;;;13.50;96.70;;;;;;4891912;29;20048;-68
2023/12/28 13:14:20;;;;;;;15.93;11.02;;;13.50;96.70;;;;;;4877621;29;20156;-68
2023/12/28 13:16:54;;;;;;;15.13;10.27;;;13.50;96.70;;;;;;4891018;29;20665;-68
2023/12/28 13:19:25;;;;;;;;;;;13.50;96.70;;;;;;4870932;29;20080;-68
2023/12/28 13:21:54;;;;;;;10.75;8.48;;;13.50;96.70;;;;;;4890559;29;20356;-67
2023/12/28 13:24:23;;;;;;;11.82;8.60;;;13.50;96.70;;;;;;4876254;29;20061;-67
2023/12/28 13:26:53;;;;;;;11.15;8.30;;;13.50;96.70;;;;;;4861043;29;20067;-67
2023/12/28 13:29:23;;;;;;;10.15;7.97;;;13.50;96.70;;;;;;4855410;29;20388;-67
2023/12/28 13:31:52;;;;;;;16.75;8.75;;;13.50;96.70;;;;;;4873082;29;20151;-66
2023/12/28 13:34:22;;;;;;;12.65;7.85;;;13.50;96.70;;;;;;4873566;29;20593;-66
2023/12/28 13:36:53;;;;;;;12.48;8.30;;;13.50;96.70;;;;;;4888318;29;20083;-66
2023/12/28 13:39:22;;;;;;;10.07;7.30;;;13.40;96.70;;;;;;4871988;29;20059;-66
2023/12/28 13:41:53;;;;;;;11.68;8.52;;;13.50;96.70;;;;;;4871642;29;20102;-67
2023/12/28 13:44:24;;;;;;;12.48;8.70;;;13.50;96.70;;;;;;4886397;29;20052;-66
2023/12/28 13:46:53;;;;;;;10.68;9.10;;;13.50;96.70;;;;;;4888067;29;20060;-67
2023/12/28 13:49:22;;;;;;;11.52;8.57;;;13.40;96.70;;;;;;4856298;29;20558;-66
2023/12/28 13:51:51;;;;;;;11.75;8.30;;;13.40;96.70;;;;;;4854245;29;20475;-67
2023/12/28 13:54:19;;;;;;;15.52;9.30;;;13.30;96.70;;;;;;4871813;29;20064;-67
2023/12/28 13:56:49;;;;;;;12.73;8.88;;;13.30;96.70;;;;;;4872076;29;20165;-67
2023/12/28 13:59:18;;;;;;;11.65;9.52;;;13.40;96.70;;;;;;4871244;29;20069;-67
2023/12/28 14:01:48;;;;;;;11.75;9.45;;;13.30;96.70;;;;;;4872128;29;20080;-67
2023/12/28 14:04:17;;;;;;;18.80;11.95;;;13.40;96.70;;;;;;4872619;29;20056;-67
2023/12/28 14:06:49;;;;;;;18.10;11.85;;;13.40;96.70;;;;;;4887697;29;20083;-67
2023/12/28 14:09:20;;;;;;;11.77;9.85;;;13.30;96.70;;;;;;4867214;29;20065;-67
2023/12/28 14:11:49;;;;;;;13.10;9.85;;;13.30;96.70;;;;;;4881555;29;20068;-67
2023/12/28 14:14:18;;;;;;;15.90;10.38;;;13.30;96.70;;;;;;4888351;29;20060;-67
2023/12/28 14:16:50;;;;;;;15.32;11.27;;;13.30;96.70;;;;;;4871736;29;20562;-67
2023/12/28 14:19:18;;;;;;;38.78;27.73;;;13.30;96.70;;;;;;4872319;29;20057;-67